Portada
METAR-TAF:

METAR-TAF

Aeroports :

Tumbes, Perú

latitud: 03-33S, longitud: 080-24W, altitud: 25 m

Observació

L'informe es va fer fa 5 hores i 38 minuts, a les 03:00 UTC
Vent 3 kt del Nord-Oest
Temperatura 25°C
Humitat 79%
Pressió 1012 hPa
Visibilitat 10 km o més
Cel ennuvolat a una alçada de 1300 ft

METAR: SPME 160300Z 31003KT 9999 BKN013 25/21 Q1012 RMK BIRD HAZARD RWY 32/14 PP000

Hora: 03:38 (08:38 UTC)

Pronòstic

L'informe es va fer fa 9 hores i 38 minuts, a les 23:00 UTC
Pronòstic vàlid del 16 a les 00 UTC al 16 a les 24 UTC
Vent 3 kt del Oest/Sud-Oest
Visibilitat 10 km o més
Cel ennuvolat a una alçada de 1200 ft
Evolucionant progressivament
l' 16 a les 15 UTC al 16 a les 17 UTC
Vent 8 kt del Nord-Oest

TAF: SPME 152300Z 1600/1624 25003KT 9999 BKN012 TX28/1619Z TN21/1611Z BECMG 1615/1617 32008KT

Observacions i pronòstics meteorològics de més de 4000 aeroports (METAR i TAF).

Les estacions disponibles són els punts grocs i vermells al mapa.

Posi el ratolí al punt desitjat per veure el nom de l'estació.

Feu clic per veure les observacions i els pronòstics meteorològics.

Per canviar el mapa: feu clic els botons verds amb una creu de color negre per apropar; al botó verd amb un guió per allunyar la imatge; o en les fletxes verdes per a mapes adjacents.


METAR-TAF: